createdAt,value
2022-11-12T00:00:48.204Z,8.3
2022-11-12T00:05:54.441Z,8.4
2022-11-12T00:11:00.612Z,8.4
2022-11-12T00:16:06.817Z,8.4
2022-11-12T00:21:13.027Z,8.4
2022-11-12T00:26:19.232Z,8.3
2022-11-12T00:31:25.446Z,8.3
2022-11-12T00:36:31.657Z,8.2
2022-11-12T00:41:37.858Z,8.2
2022-11-12T00:46:44.064Z,8.2
2022-11-12T00:51:50.276Z,8.3
2022-11-12T00:56:56.486Z,8.2
2022-11-12T01:02:02.693Z,8.2
2022-11-12T01:07:08.929Z,8.3
2022-11-12T01:12:15.101Z,8.3
2022-11-12T01:17:21.305Z,8.3
2022-11-12T01:22:26.548Z,8.4
2022-11-12T01:27:32.751Z,8.4
2022-11-12T01:32:37.991Z,8.3
2022-11-12T01:37:44.195Z,8.2
2022-11-12T01:42:50.401Z,8.1
2022-11-12T01:47:56.613Z,8.0
2022-11-12T01:53:02.815Z,8.0
2022-11-12T01:58:09.024Z,7.9
2022-11-12T02:03:15.229Z,7.8
2022-11-12T02:08:21.441Z,7.7
2022-11-12T02:13:27.646Z,7.7
2022-11-12T02:18:33.854Z,7.6
2022-11-12T02:23:40.074Z,7.5
2022-11-12T02:28:46.279Z,7.5
2022-11-12T02:33:52.469Z,7.4
2022-11-12T02:38:58.681Z,7.4
2022-11-12T02:44:04.889Z,7.3
2022-11-12T02:49:11.092Z,7.3
2022-11-12T02:54:17.308Z,7.3
2022-11-12T02:59:23.516Z,7.2
2022-11-12T03:04:29.718Z,7.2
2022-11-12T03:09:35.921Z,7.1
2022-11-12T03:14:42.135Z,7.0
2022-11-12T03:19:47.366Z,7.0
2022-11-12T03:24:53.575Z,6.9
2022-11-12T03:29:58.812Z,6.9
2022-11-12T03:35:05.049Z,6.8
2022-11-12T03:40:11.241Z,6.7
2022-11-12T03:45:17.445Z,6.7
2022-11-12T03:50:23.644Z,6.6
2022-11-12T03:55:29.848Z,6.6
2022-11-12T04:00:36.055Z,6.5
2022-11-12T04:05:42.271Z,6.5
2022-11-12T04:10:48.471Z,6.4
2022-11-12T04:15:54.673Z,6.4
2022-11-12T04:21:00.883Z,6.4
2022-11-12T04:26:07.094Z,6.3
2022-11-12T04:31:13.296Z,6.3
2022-11-12T04:36:19.509Z,6.3
2022-11-12T04:41:25.718Z,6.2
2022-11-12T04:46:31.923Z,6.2
2022-11-12T04:51:38.128Z,6.2
2022-11-12T04:56:44.336Z,6.1
2022-11-12T05:01:50.540Z,6.1
2022-11-12T05:06:56.832Z,6.1
2022-11-12T05:12:02.955Z,6.0
2022-11-12T05:17:08.190Z,6.0
2022-11-12T05:22:40.411Z,5.9
2022-11-12T05:27:20.602Z,5.9
2022-11-12T05:32:26.813Z,5.9
2022-11-12T05:37:33.029Z,5.8
2022-11-12T05:42:39.234Z,5.8
2022-11-12T05:47:45.438Z,5.8
2022-11-12T05:52:51.659Z,5.8
2022-11-12T05:57:57.852Z,5.9
2022-11-12T06:03:04.065Z,5.9
2022-11-12T06:08:10.426Z,5.9
2022-11-12T06:13:16.473Z,5.9
2022-11-12T06:18:22.813Z,5.8
2022-11-12T06:23:28.890Z,5.8
2022-11-12T06:28:35.150Z,5.8
2022-11-12T06:33:41.303Z,5.8
2022-11-12T06:38:47.509Z,5.8
2022-11-12T06:43:53.734Z,5.8
2022-11-12T06:48:59.928Z,5.7
2022-11-12T06:54:06.155Z,5.7
2022-11-12T06:59:12.343Z,5.7
2022-11-12T07:04:17.624Z,5.7
2022-11-12T07:09:23.786Z,5.6
2022-11-12T07:14:29.024Z,5.6
2022-11-12T07:19:35.231Z,5.6
2022-11-12T07:24:41.435Z,5.6
2022-11-12T07:29:48.683Z,5.6
2022-11-12T07:34:52.875Z,5.6
2022-11-12T07:39:59.083Z,5.6
2022-11-12T07:45:05.290Z,5.7
2022-11-12T07:50:11.499Z,5.7
2022-11-12T07:55:17.708Z,5.8
2022-11-12T08:00:23.917Z,5.9
2022-11-12T08:05:30.117Z,6.0
2022-11-12T08:10:36.326Z,6.1
2022-11-12T08:20:48.799Z,6.3
2022-11-12T08:25:54.946Z,6.4
2022-11-12T08:31:01.177Z,6.6
2022-11-12T08:36:07.368Z,6.7
2022-11-12T08:41:13.580Z,6.8
2022-11-12T08:46:19.773Z,7.0
2022-11-12T08:51:25.985Z,7.1
2022-11-12T08:56:32.191Z,7.3
2022-11-12T09:01:38.407Z,7.5
2022-11-12T09:06:45.429Z,7.7
2022-11-12T09:11:50.814Z,7.8
2022-11-12T09:16:57.025Z,8.0
2022-11-12T09:22:03.227Z,8.2
2022-11-12T09:27:08.462Z,8.4
2022-11-12T09:32:14.671Z,8.6
2022-11-12T09:37:19.909Z,8.8
2022-11-12T09:42:26.115Z,9.1
2022-11-12T09:47:32.320Z,9.3
2022-11-12T09:52:38.538Z,9.5
2022-11-12T09:57:44.739Z,9.7
2022-11-12T10:02:50.945Z,9.9
2022-11-12T10:07:57.156Z,10.2
2022-11-12T10:13:03.364Z,10.4
2022-11-12T10:18:09.572Z,10.7
2022-11-12T10:23:15.775Z,10.9
2022-11-12T10:28:21.981Z,11.1
2022-11-12T10:33:27.207Z,11.4
2022-11-12T10:38:33.428Z,11.6
2022-11-12T10:43:39.625Z,11.8
2022-11-12T10:48:45.836Z,12.0
2022-11-12T10:53:52.051Z,12.3
2022-11-12T10:58:58.260Z,12.5
2022-11-12T11:04:04.475Z,12.7
2022-11-12T11:09:10.667Z,12.9
2022-11-12T11:14:16.874Z,13.1
2022-11-12T11:19:23.083Z,13.2
2022-11-12T11:24:28.318Z,13.4
2022-11-12T11:29:34.524Z,13.6
2022-11-12T11:34:40.734Z,13.8
2022-11-12T11:39:46.941Z,14.0
2022-11-12T11:44:53.155Z,14.2
2022-11-12T11:49:59.367Z,14.4
2022-11-12T11:55:05.577Z,14.6
2022-11-12T12:00:11.790Z,14.7
2022-11-12T12:05:18.000Z,14.9
2022-11-12T12:10:30.350Z,15.1
2022-11-12T12:15:30.437Z,15.3
2022-11-12T12:20:36.656Z,15.5
2022-11-12T12:25:42.859Z,15.7
2022-11-12T12:30:49.072Z,15.8
2022-11-12T12:35:55.273Z,15.9
2022-11-12T12:41:01.482Z,16.1
2022-11-12T12:46:07.690Z,16.2
2022-11-12T12:51:13.903Z,16.4
2022-11-12T12:56:20.117Z,16.5
2022-11-12T13:01:26.334Z,16.6
2022-11-12T13:06:32.531Z,16.7
2022-11-12T13:11:37.761Z,16.8
2022-11-12T13:16:43.967Z,16.9
2022-11-12T13:21:49.203Z,16.9
2022-11-12T13:26:55.414Z,17.0
2022-11-12T13:32:01.642Z,17.0
2022-11-12T13:37:07.829Z,17.1
2022-11-12T13:42:14.050Z,17.1
2022-11-12T13:47:20.242Z,17.1
2022-11-12T13:52:26.454Z,17.2
2022-11-12T13:57:32.667Z,17.2
2022-11-12T14:02:41.471Z,17.2
2022-11-12T14:07:45.085Z,17.2
2022-11-12T14:12:51.287Z,17.2
2022-11-12T14:17:57.497Z,17.2
2022-11-12T14:23:03.705Z,17.1
2022-11-12T14:28:09.910Z,17.1
2022-11-12T14:33:16.123Z,17.0
2022-11-12T14:38:22.325Z,17.0
2022-11-12T14:43:28.610Z,16.9
2022-11-12T14:48:34.742Z,16.9
2022-11-12T14:53:40.949Z,16.8
2022-11-12T14:58:47.158Z,16.8
2022-11-12T15:03:53.372Z,16.7
2022-11-12T15:08:58.600Z,16.7
2022-11-12T15:14:04.817Z,16.5
2022-11-12T15:19:10.055Z,16.4
2022-11-12T15:24:16.299Z,16.3
2022-11-12T15:29:22.473Z,16.2
2022-11-12T15:34:28.680Z,16.0
2022-11-12T15:39:34.893Z,15.9
2022-11-12T15:44:41.095Z,15.7
2022-11-12T15:49:47.324Z,15.6
2022-11-12T15:54:53.537Z,15.5
2022-11-12T16:00:03.062Z,15.3
2022-11-12T16:05:05.962Z,15.2
2022-11-12T16:10:12.172Z,15.0
2022-11-12T16:15:18.395Z,14.8
2022-11-12T16:20:24.606Z,14.6
2022-11-12T16:25:30.822Z,14.4
2022-11-12T16:30:37.021Z,14.2
2022-11-12T16:35:43.238Z,14.0
2022-11-12T16:40:49.434Z,13.8
2022-11-12T16:45:55.643Z,13.6
2022-11-12T16:51:01.865Z,13.5
2022-11-12T16:56:08.061Z,13.3
2022-11-12T17:01:14.297Z,13.2
2022-11-12T17:06:19.504Z,13.0
2022-11-12T17:11:25.716Z,12.8
2022-11-12T17:16:30.954Z,12.7
2022-11-12T17:21:37.158Z,12.5
2022-11-12T17:26:43.367Z,12.4
2022-11-12T17:31:49.588Z,12.2
2022-11-12T17:36:55.782Z,12.0
2022-11-12T17:42:01.997Z,11.9
2022-11-12T17:47:08.201Z,11.8
2022-11-12T17:52:14.406Z,11.7
2022-11-12T17:57:20.616Z,11.5
2022-11-12T18:02:26.833Z,11.4
2022-11-12T18:07:33.029Z,11.3
2022-11-12T18:12:39.234Z,11.2
2022-11-12T18:17:45.442Z,11.1
2022-11-12T18:22:51.652Z,11.0
2022-11-12T18:27:57.859Z,10.9
2022-11-12T18:33:04.064Z,10.8
2022-11-12T18:38:10.271Z,10.8
2022-11-12T18:43:16.481Z,10.7
2022-11-12T18:48:22.688Z,10.7
2022-11-12T18:53:29.331Z,10.5
2022-11-12T18:58:35.635Z,10.5
2022-11-12T19:03:40.344Z,10.5
2022-11-12T19:08:46.549Z,10.4
2022-11-12T19:13:51.786Z,10.3
2022-11-12T19:18:58.000Z,10.3
2022-11-12T19:24:04.203Z,10.2
2022-11-12T19:29:10.407Z,10.2
2022-11-12T19:34:16.614Z,10.2
2022-11-12T19:39:22.835Z,10.1
2022-11-12T19:44:29.041Z,10.1
2022-11-12T19:49:35.244Z,10.0
2022-11-12T19:54:41.443Z,9.9
2022-11-12T19:59:47.659Z,9.9
2022-11-12T20:04:53.857Z,9.8
2022-11-12T20:10:01.244Z,9.8
2022-11-12T20:15:06.286Z,9.7
2022-11-12T20:20:12.487Z,9.7
2022-11-12T20:25:18.694Z,9.6
2022-11-12T20:30:24.898Z,9.6
2022-11-12T20:35:31.103Z,9.6
2022-11-12T20:40:37.325Z,9.5
2022-11-12T20:45:43.529Z,9.5
2022-11-12T20:51:09.596Z,9.5
2022-11-12T20:55:55.930Z,9.4
2022-11-12T21:01:01.282Z,9.4
2022-11-12T21:06:07.380Z,9.3
2022-11-12T21:11:12.624Z,9.3
2022-11-12T21:16:18.818Z,9.2
2022-11-12T21:21:25.025Z,9.2
2022-11-12T21:26:31.285Z,9.2
2022-11-12T21:31:37.444Z,9.2
2022-11-12T21:36:43.660Z,9.2
2022-11-12T21:41:49.861Z,9.2
2022-11-12T21:46:56.064Z,9.2
2022-11-12T21:52:02.271Z,9.1
2022-11-12T21:57:08.477Z,9.1
2022-11-12T22:02:14.716Z,9.0
2022-11-12T22:07:20.923Z,9.0
2022-11-12T22:12:27.102Z,9.0
2022-11-12T22:17:33.313Z,8.9
2022-11-12T22:22:39.518Z,8.9
2022-11-12T22:27:45.723Z,8.9
2022-11-12T22:37:58.135Z,8.8
2022-11-12T22:43:04.347Z,8.8
2022-11-12T22:48:10.555Z,8.7
2022-11-12T22:53:16.760Z,8.7
2022-11-12T22:58:22.969Z,8.7
2022-11-12T23:03:28.210Z,8.7
2022-11-12T23:08:34.410Z,8.7
2022-11-12T23:13:40.626Z,8.7
2022-11-12T23:18:45.861Z,8.7
2022-11-12T23:23:52.062Z,8.7
2022-11-12T23:28:58.271Z,8.7
2022-11-12T23:34:04.475Z,8.7
2022-11-12T23:39:10.683Z,8.7
2022-11-12T23:44:16.892Z,8.7
2022-11-12T23:49:23.095Z,8.7
2022-11-12T23:54:29.306Z,8.7
2022-11-12T23:59:35.516Z,8.7
